Time;durP1;ratioP1;P1;durP2;ratioP2;P2;SDS_P1;SDS_P2;PMS_P1;PMS_P2;Temp;Humidity;BMP_temperature;BMP_pressure;BME280_temperature;BME280_humidity;BME280_pressure;Samples;Min_cycle;Max_cycle;Signal;HPM_P1;HPM_P2
2022/11/27 00:01:15;;;;;;;13.60;8.88;;;;;;;4.41;84.65;99637.38;5094656;28;20052;-61
2022/11/27 00:03:41;;;;;;;14.57;9.23;;;;;;;4.50;84.31;99645.56;5088582;28;20990;-63
2022/11/27 00:06:09;;;;;;;15.88;8.55;;;;;;;4.79;84.06;99678.31;5092516;28;20084;-62
2022/11/27 00:08:34;;;;;;;12.30;8.20;;;;;;;4.76;84.32;99677.66;5113472;27;20035;-62
2022/11/27 00:11:08;;;;;;;14.90;8.68;;;;;;;4.46;84.39;99626.84;5094484;27;20024;-61
2022/11/27 00:13:33;;;;;;;14.30;8.80;;;;;;;4.77;84.48;99680.16;5095646;28;20136;-62
2022/11/27 00:15:59;;;;;;;13.07;8.25;;;;;;;4.72;84.03;99684.72;5076684;28;20438;-62
2022/11/27 00:18:24;;;;;;;14.85;8.95;;;;;;;4.58;84.76;99674.31;5098917;28;20580;-61
2022/11/27 00:20:49;;;;;;;14.35;8.40;;;;;;;4.36;85.64;99654.00;5096581;28;20103;-62
2022/11/27 00:23:15;;;;;;;14.02;7.95;;;;;;;4.43;85.18;99653.63;5092678;28;20020;-62
2022/11/27 00:25:48;;;;;;;12.90;7.88;;;;;;;4.46;85.16;99644.06;5093627;27;20036;-62
2022/11/27 00:28:14;;;;;;;13.25;8.45;;;;;;;4.72;84.70;99679.56;5094769;27;20076;-63
2022/11/27 00:30:39;;;;;;;16.13;8.35;;;;;;;4.47;84.64;99643.13;5097512;27;20536;-63
2022/11/27 00:33:04;;;;;;;11.95;8.07;;;;;;;4.36;85.31;99630.81;5118758;27;20019;-62
2022/11/27 00:35:30;;;;;;;13.70;8.10;;;;;;;4.46;85.04;99673.22;5116410;27;20059;-62
2022/11/27 00:37:55;;;;;;;11.82;7.38;;;;;;;3.92;86.63;99637.34;5096677;27;20431;-63
2022/11/27 00:40:21;;;;;;;11.40;7.68;;;;;;;4.18;86.94;99678.94;5098568;27;20796;-62
2022/11/27 00:42:46;;;;;;;14.15;8.40;;;;;;;4.29;86.51;99675.81;5106247;27;20034;-63
2022/11/27 00:45:11;;;;;;;15.30;7.75;;;;;;;4.31;87.29;99671.41;5079576;28;20028;-63
2022/11/27 00:47:37;;;;;;;12.90;8.35;;;;;;;4.40;86.70;99670.97;5080074;28;20042;-62
2022/11/27 00:50:03;;;;;;;11.60;7.70;;;;;;;4.38;86.70;99678.78;5098198;28;20028;-63
2022/11/27 00:52:28;;;;;;;14.02;8.02;;;;;;;4.21;86.17;99668.50;5098588;28;20035;-62
2022/11/27 00:54:53;;;;;;;13.52;8.45;;;;;;;4.08;86.27;99673.44;5093570;28;20201;-63
2022/11/27 00:57:19;;;;;;;12.73;7.88;;;;;;;4.08;87.13;99682.91;5099134;28;20031;-62
2022/11/27 00:59:44;;;;;;;14.65;7.95;;;;;;;4.22;86.44;99675.31;5101006;28;20121;-62
2022/11/27 01:02:10;;;;;;;13.10;7.68;;;;;;;4.31;86.00;99672.28;5100958;28;20592;-62
2022/11/27 01:04:35;;;;;;;15.15;8.35;;;;;;;4.35;85.64;99678.09;5081297;28;20097;-62
2022/11/27 01:07:00;;;;;;;14.57;7.85;;;;;;;4.22;85.72;99681.28;5097106;28;20019;-62
2022/11/27 01:09:26;;;;;;;11.75;7.45;;;;;;;4.17;86.47;99677.28;5088926;28;20055;-62
2022/11/27 01:11:51;;;;;;;12.57;7.70;;;;;;;3.94;86.81;99671.56;5099255;28;20039;-63
2022/11/27 01:14:17;;;;;;;12.02;7.30;;;;;;;4.09;87.16;99674.25;5089397;28;20038;-62
2022/11/27 01:16:43;;;;;;;13.55;7.75;;;;;;;4.14;87.08;99669.72;5096638;28;20057;-62
2022/11/27 01:19:10;;;;;;;14.18;8.02;;;;;;;3.82;87.67;99623.28;5077451;28;20043;-62
2022/11/27 01:21:35;;;;;;;12.60;6.82;;;;;;;4.04;88.07;99675.31;5090689;28;20027;-62
2022/11/27 01:24:02;;;;;;;12.98;7.40;;;;;;;4.11;88.14;99675.88;5106183;27;20185;-62
2022/11/27 01:26:28;;;;;;;12.60;7.38;;;;;;;4.04;88.46;99661.63;5097161;28;20024;-62
2022/11/27 01:28:55;;;;;;;14.73;7.53;;;;;;;4.05;89.31;99678.72;5091170;28;20088;-63
2022/11/27 01:31:23;;;;;;;12.48;7.60;;;;;;;4.13;88.03;99678.38;5097854;28;20027;-62
2022/11/27 01:34:16;;;;;;;13.13;8.02;;;;;;;4.21;87.42;99678.78;5096490;28;20070;-62
2022/11/27 01:36:42;;;;;;;11.70;6.95;;;;;;;4.18;87.51;99672.06;5085684;28;20043;-62
2022/11/27 01:39:13;;;;;;;12.57;7.13;;;;;;;3.91;87.24;99627.16;5094153;28;20028;-62
2022/11/27 01:41:41;;;;;;;11.32;6.65;;;;;;;3.91;88.49;99635.69;5097801;28;20074;-63
2022/11/27 01:44:35;;;;;;;13.98;7.75;;;;;;;4.17;88.40;99672.13;5076305;28;20085;-63
2022/11/27 01:47:13;;;;;;;12.23;7.25;;;;;;;4.13;88.17;99660.34;5081762;28;20397;-61
2022/11/27 01:49:52;;;;;;;15.07;8.02;;;;;;;4.10;89.23;99658.75;5094555;28;20056;-62
2022/11/27 01:52:18;;;;;;;13.50;7.93;;;;;;;4.12;89.12;99664.63;5093770;28;20027;-62
2022/11/27 01:54:54;;;;;;;11.40;7.07;;;;;;;4.16;89.69;99655.88;5091746;28;20047;-63
2022/11/27 01:57:26;;;;;;;11.98;7.35;;;;;;;4.21;90.18;99653.88;5097791;28;20028;-62
2022/11/27 01:59:52;;;;;;;12.38;6.90;;;;;;;4.30;92.13;99652.56;5075936;28;20058;-63
2022/11/27 02:02:17;;;;;;;10.30;6.43;;;;;;;4.32;92.18;99653.31;5081782;28;20062;-62
2022/11/27 02:04:43;;;;;;;12.18;6.53;;;;;;;4.38;92.59;99639.28;5098457;28;20508;-63
2022/11/27 02:07:08;;;;;;;12.82;7.15;;;;;;;4.38;93.19;99636.72;5091221;28;20031;-62
2022/11/27 02:09:34;;;;;;;9.88;6.43;;;;;;;4.18;91.73;99596.56;5093826;28;20031;-63
2022/11/27 02:12:25;;;;;;;11.32;7.43;;;;;;;4.43;92.78;99639.88;5092908;27;20107;-63
2022/11/27 02:15:03;;;;;;;12.77;7.05;;;;;;;4.28;92.52;99596.94;5076670;27;20706;-62
2022/11/27 02:17:51;;;;;;;12.52;5.95;;;;;;;4.55;94.69;99638.44;5105030;27;20020;-62
2022/11/27 02:20:25;;;;;;;11.98;6.10;;;;;;;4.57;94.95;99639.16;5094738;27;20024;-63
2022/11/27 02:23:00;;;;;;;11.48;6.10;;;;;;;4.32;94.27;99604.41;5102603;27;20039;-62
2022/11/27 02:25:56;;;;;;;10.85;6.15;;;;;;;4.55;94.24;99653.88;5097847;27;21225;-63
2022/11/27 02:28:49;;;;;;;10.35;5.57;;;;;;;4.54;96.85;99634.16;5101003;27;20028;-63
2022/11/27 02:31:23;;;;;;;9.82;4.78;;;;;;;4.58;96.87;99622.78;5097865;27;20638;-64
2022/11/27 02:33:52;;;;;;;10.82;5.15;;;;;;;4.60;96.95;99620.97;5091061;27;20031;-63
2022/11/27 02:36:21;;;;;;;8.60;4.53;;;;;;;4.65;96.35;99613.81;5117420;27;20024;-63
2022/11/27 02:38:52;;;;;;;8.95;5.03;;;;;;;4.68;96.24;99605.09;5094520;27;20629;-62
2022/11/27 02:41:24;;;;;;;9.73;5.03;;;;;;;4.75;96.35;99591.81;5098392;27;20359;-62
2022/11/27 02:43:51;;;;;;;9.25;5.38;;;;;;;4.86;95.83;99600.72;5101604;27;20134;-62
2022/11/27 02:46:18;;;;;;;7.55;4.25;;;;;;;4.85;95.44;99599.03;5098193;27;20093;-63
2022/11/27 02:48:49;;;;;;;8.32;4.65;;;;;;;4.84;94.91;99605.09;5094110;27;20036;-63
2022/11/27 02:51:17;;;;;;;9.02;4.70;;;;;;;4.81;94.51;99598.38;5086855;28;20409;-62
2022/11/27 02:53:50;;;;;;;7.18;3.70;;;;;;;4.94;91.45;99617.38;5086916;27;20028;-63
2022/11/27 02:56:19;;;;;;;6.43;3.63;;;;;;;4.87;89.32;99581.72;5098385;27;20038;-63
2022/11/27 02:58:45;;;;;;;6.78;3.35;;;;;;;5.39;88.44;99636.38;5091584;27;20026;-62
2022/11/27 03:01:11;;;;;;;7.15;3.55;;;;;;;5.50;86.87;99630.63;5099442;27;20077;-62
2022/11/27 03:03:44;;;;;;;6.85;3.28;;;;;;;5.61;87.07;99627.41;5096911;27;20031;-63
2022/11/27 03:06:13;;;;;;;6.63;3.25;;;;;;;5.65;86.85;99623.72;5104004;27;20546;-63
2022/11/27 03:09:09;;;;;;;6.65;3.35;;;;;;;5.69;86.68;99625.22;5074292;27;20090;-63
2022/11/27 03:11:35;;;;;;;6.63;3.13;;;;;;;5.35;85.38;99575.56;5073266;27;20040;-60
2022/11/27 03:14:10;;;;;;;6.18;3.28;;;;;;;5.65;84.32;99617.75;5099791;27;20032;-62
2022/11/27 03:17:13;;;;;;;6.38;3.30;;;;;;;5.65;85.56;99618.56;5095055;27;20059;-62
2022/11/27 03:19:49;;;;;;;6.50;3.22;;;;;;;5.70;85.24;99610.59;5105711;27;20019;-61
2022/11/27 03:22:15;;;;;;;5.30;2.83;;;;;;;5.62;83.62;99603.25;5089658;27;20081;-63
2022/11/27 03:24:40;;;;;;;6.13;2.97;;;;;;;5.56;84.11;99609.59;5099504;27;20652;-63
2022/11/27 03:27:07;;;;;;;6.25;2.95;;;;;;;5.59;84.23;99604.28;5093558;27;20042;-61
2022/11/27 03:29:36;;;;;;;6.20;2.95;;;;;;;5.58;83.08;99602.63;5076198;28;20051;-62
2022/11/27 03:32:02;;;;;;;5.80;2.80;;;;;;;5.54;82.80;99595.97;5098555;27;20032;-61
2022/11/27 03:34:27;;;;;;;6.22;3.13;;;;;;;5.29;80.66;99552.69;5097209;27;20038;-61
2022/11/27 03:36:53;;;;;;;5.85;2.85;;;;;;;5.61;80.75;99600.78;5087598;27;20067;-62
2022/11/27 03:39:19;;;;;;;6.50;2.67;;;;;;;5.65;79.81;99599.69;5097892;27;20531;-61
2022/11/27 03:42:00;;;;;;;5.20;2.45;;;;;;;5.64;80.21;99603.19;5082263;27;20031;-61
2022/11/27 03:44:53;;;;;;;6.55;2.85;;;;;;;5.71;80.39;99613.06;5095996;27;20058;-62
2022/11/27 03:47:53;;;;;;;6.72;2.60;;;;;;;5.77;79.31;99619.63;5102663;27;20063;-61
2022/11/27 03:50:55;;;;;;;5.20;2.60;;;;;;;5.66;80.40;99616.81;5099267;27;20027;-62
2022/11/27 03:53:45;;;;;;;6.78;2.47;;;;;;;5.65;80.33;99628.91;5091271;28;20023;-62
2022/11/27 03:56:14;;;;;;;8.43;2.55;;;;;;;5.68;80.20;99613.25;5096099;28;20667;-62
2022/11/27 03:59:14;;;;;;;7.75;3.00;;;;;;;5.68;80.67;99621.00;5096581;28;20840;-61
2022/11/27 04:01:40;;;;;;;5.18;2.20;;;;;;;5.69;80.64;99616.66;5032982;28;20037;-62
2022/11/27 04:04:06;;;;;;;5.40;2.30;;;;;;;5.69;79.89;99616.66;5085001;27;20044;-62
2022/11/27 04:06:31;;;;;;;5.72;2.55;;;;;;;5.67;79.80;99610.75;5084168;28;20103;-62
2022/11/27 04:08:57;;;;;;;7.57;2.72;;;;;;;5.65;80.56;99607.44;5103833;27;20035;-62
2022/11/27 04:11:22;;;;;;;5.53;2.50;;;;;;;5.67;80.70;99608.16;5101465;27;20031;-62
2022/11/27 04:13:47;;;;;;;10.07;3.30;;;;;;;5.63;80.88;99604.94;5098648;27;20059;-62
2022/11/27 04:16:13;;;;;;;6.00;2.35;;;;;;;5.62;81.47;99603.25;5093399;27;20474;-61
2022/11/27 04:18:38;;;;;;;5.28;2.50;;;;;;;5.62;81.22;99592.13;5101581;27;20406;-63
2022/11/27 04:21:04;;;;;;;5.78;2.67;;;;;;;5.63;80.76;99596.38;5098837;27;20122;-63
2022/11/27 04:23:30;;;;;;;5.75;3.00;;;;;;;5.33;80.95;99545.63;5100932;27;20113;-64
2022/11/27 04:25:56;;;;;;;5.18;2.33;;;;;;;5.63;80.88;99593.78;5099791;27;20032;-62
2022/11/27 04:28:21;;;;;;;5.93;2.40;;;;;;;5.62;80.25;99597.28;5095927;27;20453;-63
2022/11/27 04:30:51;;;;;;;5.45;2.33;;;;;;;5.60;80.15;99597.38;5097991;27;20023;-62
2022/11/27 04:33:17;;;;;;;5.93;2.17;;;;;;;5.68;77.79;99596.94;5097085;27;20035;-61
2022/11/27 04:35:42;;;;;;;5.10;2.20;;;;;;;5.69;77.90;99599.41;5097250;27;20305;-62
2022/11/27 04:38:08;;;;;;;5.57;2.65;;;;;;;5.69;79.42;99599.41;5083898;28;20020;-62
2022/11/27 04:40:33;;;;;;;7.93;2.50;;;;;;;5.57;80.56;99597.56;5102439;27;20123;-63
2022/11/27 04:42:58;;;;;;;5.70;2.53;;;;;;;5.50;80.58;99585.94;5094808;27;20834;-63
2022/11/27 04:45:24;;;;;;;5.05;2.40;;;;;;;5.29;79.85;99552.69;5098845;27;20036;-63
2022/11/27 04:47:49;;;;;;;6.68;2.80;;;;;;;5.49;80.19;99597.16;5099950;28;20039;-62
2022/11/27 04:50:14;;;;;;;5.78;2.30;;;;;;;5.56;79.19;99599.28;5092543;28;20110;-62
2022/11/27 04:52:40;;;;;;;6.55;2.55;;;;;;;5.29;79.22;99557.84;5125319;27;20035;-63
2022/11/27 04:55:06;;;;;;;6.05;2.25;;;;;;;5.61;79.70;99604.19;5099475;27;20040;-63
2022/11/27 04:57:31;;;;;;;5.80;2.22;;;;;;;5.51;80.44;99606.50;5105895;27;20487;-63
2022/11/27 04:59:57;;;;;;;5.00;2.40;;;;;;;5.48;80.85;99598.91;5095855;27;20035;-62
2022/11/27 05:02:22;;;;;;;6.28;2.35;;;;;;;5.50;81.12;99606.56;5094854;28;20055;-63
2022/11/27 05:04:48;;;;;;;5.32;2.22;;;;;;;5.30;82.10;99576.75;5096478;28;20036;-61
2022/11/27 05:07:13;;;;;;;6.75;2.70;;;;;;;5.50;81.51;99604.00;5076207;28;20085;-63
2022/11/27 05:09:38;;;;;;;6.13;2.33;;;;;;;5.16;82.13;99572.38;5102948;28;20032;-64
2022/11/27 05:12:04;;;;;;;5.05;2.17;;;;;;;5.17;83.07;99586.94;5079661;28;20030;-62
2022/11/27 05:14:29;;;;;;;6.97;2.30;;;;;;;5.45;81.62;99622.28;5100118;28;20085;-63
2022/11/27 05:16:58;;;;;;;5.43;2.28;;;;;;;5.45;81.40;99622.28;5082942;28;20424;-63
2022/11/27 05:19:26;;;;;;;6.40;2.33;;;;;;;5.46;81.36;99615.38;5104677;28;20035;-63
2022/11/27 05:21:52;;;;;;;5.82;2.30;;;;;;;5.42;81.70;99604.44;5096516;28;20085;-63
2022/11/27 05:24:19;;;;;;;5.40;2.10;;;;;;;5.44;81.28;99618.06;5084740;28;20791;-62
2022/11/27 05:26:45;;;;;;;5.20;2.10;;;;;;;5.43;81.90;99615.56;5080984;28;20115;-62
2022/11/27 05:29:11;;;;;;;5.95;2.38;;;;;;;5.37;80.84;99609.84;5106355;28;20042;-63
2022/11/27 05:31:37;;;;;;;5.07;2.35;;;;;;;5.36;80.84;99615.91;5122913;27;20825;-63
2022/11/27 05:34:03;;;;;;;6.28;2.30;;;;;;;5.22;80.16;99576.34;5083636;28;20032;-62
2022/11/27 05:36:29;;;;;;;5.72;2.17;;;;;;;5.37;80.92;99619.34;5099912;28;20104;-62
2022/11/27 05:38:55;;;;;;;5.35;2.30;;;;;;;5.30;81.73;99611.09;5093711;28;20795;-62
2022/11/27 05:41:20;;;;;;;6.05;2.08;;;;;;;5.34;81.46;99619.50;5093902;28;20109;-61
2022/11/27 05:43:46;;;;;;;7.47;2.60;;;;;;;5.39;81.74;99608.00;5128061;27;20038;-63
2022/11/27 05:46:14;;;;;;;6.65;2.20;;;;;;;5.31;81.73;99607.63;5098459;28;20031;-62
2022/11/27 05:48:39;;;;;;;4.90;2.10;;;;;;;5.33;81.80;99612.66;5099925;27;20054;-62
2022/11/27 05:51:05;;;;;;;4.85;2.08;;;;;;;5.26;82.37;99608.81;5101202;27;20126;-63
2022/11/27 05:53:31;;;;;;;5.38;2.25;;;;;;;5.18;82.78;99601.47;5098950;27;20040;-62
2022/11/27 05:56:01;;;;;;;4.53;1.80;;;;;;;5.25;82.64;99607.13;5115491;27;20036;-62
2022/11/27 05:58:27;;;;;;;5.10;2.20;;;;;;;5.27;83.26;99613.84;5079579;27;20039;-61
2022/11/27 06:00:52;;;;;;;5.55;2.20;;;;;;;5.27;82.26;99623.34;5104121;27;20035;-62
2022/11/27 06:03:18;;;;;;;6.15;2.00;;;;;;;5.32;81.88;99618.75;5093412;27;20655;-61
2022/11/27 06:05:43;;;;;;;6.65;2.10;;;;;;;5.34;81.90;99627.25;5100759;27;20028;-61
2022/11/27 06:08:08;;;;;;;5.57;2.03;;;;;;;5.03;81.48;99572.22;5081583;28;20034;-61
2022/11/27 06:10:34;;;;;;;4.40;1.95;;;;;;;5.27;81.88;99619.00;5102122;27;20598;-62
2022/11/27 06:12:59;;;;;;;4.63;1.85;;;;;;;5.27;82.39;99613.84;5097069;27;20027;-62
2022/11/27 06:15:24;;;;;;;5.47;2.10;;;;;;;5.31;81.81;99622.25;5118636;27;20470;-62
2022/11/27 06:17:50;;;;;;;5.65;1.98;;;;;;;5.30;81.90;99618.84;5095577;27;20036;-62
2022/11/27 06:20:16;;;;;;;4.57;1.88;;;;;;;5.22;82.36;99610.72;5104376;27;20028;-62
2022/11/27 06:22:41;;;;;;;4.90;2.13;;;;;;;5.35;82.24;99618.59;5102811;27;20064;-62
2022/11/27 06:25:07;;;;;;;5.45;2.28;;;;;;;5.26;81.71;99603.66;5100668;27;20778;-62
2022/11/27 06:27:33;;;;;;;4.50;1.92;;;;;;;5.34;81.34;99604.84;5093599;27;20187;-63
2022/11/27 06:29:59;;;;;;;5.00;2.20;;;;;;;5.30;81.50;99605.13;5124690;27;20063;-61
2022/11/27 06:32:24;;;;;;;4.50;1.92;;;;;;;5.01;81.63;99554.28;5101541;27;20031;-62
2022/11/27 06:34:49;;;;;;;4.38;1.90;;;;;;;5.29;81.35;99598.28;5099391;27;20076;-62
2022/11/27 06:37:15;;;;;;;5.38;2.17;;;;;;;5.13;81.69;99596.59;5098086;27;20043;-62
2022/11/27 06:39:40;;;;;;;5.57;2.05;;;;;;;5.15;82.07;99599.09;5101384;27;20066;-63
2022/11/27 06:42:05;;;;;;;5.47;1.90;;;;;;;5.19;81.85;99611.72;5100161;27;20165;-62
2022/11/27 06:44:31;;;;;;;5.43;2.10;;;;;;;5.11;80.88;99585.53;5077669;28;20579;-62
2022/11/27 06:46:56;;;;;;;5.60;1.85;;;;;;;5.29;80.79;99603.44;5097628;27;20039;-62
2022/11/27 06:49:22;;;;;;;4.55;1.70;;;;;;;5.25;80.91;99594.22;5099280;27;20024;-62
2022/11/27 06:51:47;;;;;;;4.63;1.80;;;;;;;5.30;80.68;99608.53;5099282;27;20035;-62
2022/11/27 06:54:13;;;;;;;4.78;2.00;;;;;;;5.32;80.87;99609.28;5101081;27;20034;-62
2022/11/27 06:56:38;;;;;;;4.97;1.80;;;;;;;4.92;81.22;99557.38;5095828;27;20475;-63
2022/11/27 06:59:04;;;;;;;6.03;1.95;;;;;;;5.12;81.20;99602.66;5100304;27;20037;-62
2022/11/27 07:01:30;;;;;;;4.13;1.50;;;;;;;5.15;81.42;99606.81;5107185;27;20553;-61
2022/11/27 07:03:56;;;;;;;5.13;1.88;;;;;;;5.23;80.74;99614.13;5103123;27;20102;-62
2022/11/27 07:06:23;;;;;;;4.70;1.98;;;;;;;5.26;80.02;99613.97;5098799;27;20643;-62
2022/11/27 07:08:48;;;;;;;4.82;1.80;;;;;;;5.16;81.04;99617.03;5098323;28;20043;-61
2022/11/27 07:11:17;;;;;;;4.88;1.98;;;;;;;5.20;81.07;99631.44;5091288;28;20486;-62
2022/11/27 07:13:43;;;;;;;4.03;1.75;;;;;;;4.98;80.33;99589.69;5091195;27;20032;-62
2022/11/27 07:16:10;;;;;;;4.95;1.90;;;;;;;5.23;80.24;99633.00;5094334;28;20095;-63
2022/11/27 07:18:44;;;;;;;4.68;1.80;;;;;;;5.18;80.88;99630.69;5092371;28;20023;-62
2022/11/27 07:21:10;;;;;;;4.53;1.70;;;;;;;5.29;79.39;99630.06;5096793;28;20048;-63
2022/11/27 07:23:35;;;;;;;4.20;1.67;;;;;;;5.00;79.21;99599.03;5099227;27;20449;-63
2022/11/27 07:26:10;;;;;;;4.32;1.73;;;;;;;5.25;78.92;99635.50;5116599;27;20456;-63
2022/11/27 07:28:35;;;;;;;5.38;1.80;;;;;;;5.13;79.50;99622.38;5079589;28;20490;-62
2022/11/27 07:31:01;;;;;;;3.97;1.50;;;;;;;5.23;79.50;99629.59;5115330;27;20039;-63
2022/11/27 07:33:26;;;;;;;5.20;1.90;;;;;;;5.21;79.18;99627.09;5084908;27;20038;-63
2022/11/27 07:36:00;;;;;;;4.20;1.83;;;;;;;5.22;78.36;99625.34;5099822;27;20040;-63
2022/11/27 07:38:26;;;;;;;4.90;1.83;;;;;;;5.29;77.63;99632.63;5071628;28;20818;-63
2022/11/27 07:40:51;;;;;;;4.57;1.90;;;;;;;5.22;78.74;99627.91;5077401;28;20118;-62
2022/11/27 07:43:16;;;;;;;4.50;1.60;;;;;;;4.91;79.06;99589.22;5100896;27;20024;-63
2022/11/27 07:45:42;;;;;;;5.05;1.60;;;;;;;5.15;79.48;99630.03;5095687;28;20043;-63
2022/11/27 07:48:07;;;;;;;4.45;1.50;;;;;;;5.22;79.85;99630.50;5093355;28;20072;-62
2022/11/27 07:50:33;;;;;;;4.38;1.63;;;;;;;5.16;79.49;99622.19;5082087;28;20441;-62
2022/11/27 07:52:58;;;;;;;4.80;2.03;;;;;;;5.26;79.44;99622.53;5099251;27;20767;-62
2022/11/27 07:55:23;;;;;;;4.65;2.03;;;;;;;5.23;80.03;99627.00;5093188;28;20035;-62
2022/11/27 07:57:49;;;;;;;5.35;2.80;;;;;;;5.19;80.32;99626.34;5095521;28;20129;-63
2022/11/27 08:00:15;;;;;;;6.00;3.20;;;;;;;5.27;80.06;99625.91;5074477;28;20610;-61
2022/11/27 08:02:40;;;;;;;7.88;4.50;;;;;;;5.27;79.74;99625.91;5093802;27;20026;-62
2022/11/27 08:05:06;;;;;;;5.97;2.85;;;;;;;5.25;78.94;99628.56;5113871;27;20040;-62
2022/11/27 08:07:31;;;;;;;6.68;3.10;;;;;;;5.27;78.94;99628.50;5093003;28;20036;-65
2022/11/27 08:09:57;;;;;;;4.78;2.05;;;;;;;5.04;78.61;99579.06;5096462;28;20031;-61
2022/11/27 08:12:23;;;;;;;6.20;2.72;;;;;;;5.26;78.40;99640.56;5069072;28;20107;-61
2022/11/27 08:14:49;;;;;;;5.50;2.95;;;;;;;5.29;78.19;99632.63;5092024;27;20516;-62
2022/11/27 08:17:14;;;;;;;5.13;2.70;;;;;;;5.27;77.48;99626.75;5082088;28;20028;-62
2022/11/27 08:19:40;;;;;;;4.50;1.98;;;;;;;5.35;76.50;99624.56;5093278;28;20105;-63
2022/11/27 08:22:13;;;;;;;7.30;2.30;;;;;;;5.32;76.37;99626.50;5105931;27;20038;-62
2022/11/27 08:24:38;;;;;;;5.47;2.78;;;;;;;5.30;75.78;99621.44;5095097;28;20041;-63
2022/11/27 08:27:04;;;;;;;6.50;2.70;;;;;;;5.22;76.14;99609.88;5082147;28;20031;-62
2022/11/27 08:29:29;;;;;;;5.32;1.98;;;;;;;4.97;76.50;99588.88;5097836;28;20832;-62
2022/11/27 08:31:55;;;;;;;5.43;2.17;;;;;;;5.20;76.40;99633.16;5088146;27;20035;-62
2022/11/27 08:34:20;;;;;;;5.60;1.77;;;;;;;5.30;76.43;99639.47;5100508;27;20043;-62
2022/11/27 08:36:46;;;;;;;4.70;2.08;;;;;;;5.35;75.97;99640.06;5095397;28;20506;-63
2022/11/27 08:39:11;;;;;;;4.32;1.75;;;;;;;5.40;75.53;99644.94;5089275;28;20549;-62
2022/11/27 08:41:37;;;;;;;3.80;1.50;;;;;;;5.21;74.96;99578.09;5111654;27;20031;-62
2022/11/27 08:44:02;;;;;;;5.60;2.03;;;;;;;5.12;75.02;99584.59;5096344;28;20039;-61
2022/11/27 08:46:28;;;;;;;5.22;2.13;;;;;;;5.12;75.02;99569.13;5094901;28;20055;-62
2022/11/27 08:48:53;;;;;;;5.15;1.90;;;;;;;5.42;74.47;99629.38;5094074;28;20031;-62
2022/11/27 08:51:18;;;;;;;4.85;2.10;;;;;;;5.45;73.78;99613.72;5101658;28;20321;-63
2022/11/27 08:53:44;;;;;;;5.10;2.30;;;;;;;5.46;74.27;99618.81;5079036;28;20042;-62
2022/11/27 08:56:15;;;;;;;4.25;1.88;;;;;;;5.38;73.57;99602.94;5090084;28;20031;-63
2022/11/27 08:58:42;;;;;;;5.97;2.22;;;;;;;5.22;73.16;99564.31;5091660;28;20032;-63
2022/11/27 09:01:10;;;;;;;6.57;2.97;;;;;;;5.23;73.02;99578.84;5078736;28;20565;-62
2022/11/27 09:03:35;;;;;;;6.05;2.83;;;;;;;5.51;72.77;99615.94;5092238;28;20042;-62
2022/11/27 09:06:01;;;;;;;5.40;2.60;;;;;;;5.52;73.71;99610.72;5093702;28;20027;-62
2022/11/27 09:08:26;;;;;;;5.35;2.13;;;;;;;5.59;73.37;99611.19;5090241;28;20031;-63
2022/11/27 09:10:52;;;;;;;5.03;2.22;;;;;;;5.60;73.66;99607.69;5091399;28;20031;-63
2022/11/27 09:13:17;;;;;;;5.13;2.10;;;;;;;5.71;72.67;99612.22;5081023;28;20041;-63
2022/11/27 09:15:43;;;;;;;6.45;2.70;;;;;;;5.67;72.77;99610.75;5088919;28;20118;-62
2022/11/27 09:18:09;;;;;;;5.93;2.45;;;;;;;5.68;72.94;99607.25;5100043;28;20031;-61
2022/11/27 09:20:34;;;;;;;5.90;2.40;;;;;;;5.68;73.70;99612.44;5099815;28;20083;-62
2022/11/27 09:23:01;;;;;;;5.38;2.75;;;;;;;5.45;73.18;99581.03;5104420;27;20035;-62
2022/11/27 09:25:27;;;;;;;5.55;2.85;;;;;;;5.62;73.90;99603.25;5099083;28;20020;-62
2022/11/27 09:27:52;;;;;;;5.95;2.70;;;;;;;5.65;74.03;99597.09;5088601;28;20074;-62
2022/11/27 09:30:18;;;;;;;6.00;2.70;;;;;;;5.66;73.86;99596.19;5099789;28;20521;-62
2022/11/27 09:32:43;;;;;;;6.97;2.97;;;;;;;5.72;74.45;99608.75;5098793;27;20035;-62
2022/11/27 09:35:09;;;;;;;4.88;1.83;;;;;;;5.62;73.57;99611.00;5090336;27;20035;-63
2022/11/27 09:37:34;;;;;;;5.38;2.05;;;;;;;5.45;73.12;99542.34;5100005;27;20639;-62
2022/11/27 09:39:59;;;;;;;5.72;1.65;;;;;;;5.82;73.19;99586.63;5100571;28;20032;-61
2022/11/27 09:42:39;;;;;;;4.38;1.77;;;;;;;5.75;72.56;99550.03;5082916;28;20039;-63
2022/11/27 09:45:07;;;;;;;4.43;1.90;;;;;;;5.90;72.65;99588.75;5093874;27;20149;-63
2022/11/27 09:48:10;;;;;;;6.90;2.55;;;;;;;5.91;73.15;99596.44;5097490;28;20385;-62
2022/11/27 09:50:41;;;;;;;5.20;1.90;;;;;;;5.92;72.68;99592.09;5037907;28;20130;-62
2022/11/27 09:53:53;;;;;;;6.35;2.95;;;;;;;6.07;72.40;99604.09;5073292;28;20047;-61
2022/11/27 09:56:19;;;;;;;6.25;2.78;;;;;;;6.22;72.07;99586.03;5098388;27;20066;-60
2022/11/27 09:58:49;;;;;;;6.90;3.03;;;;;;;6.15;71.47;99565.75;5098264;27;20107;-62
2022/11/27 10:01:18;;;;;;;7.63;3.10;;;;;;;6.47;71.76;99604.25;5093331;28;20548;-63
2022/11/27 10:03:44;;;;;;;6.68;3.28;;;;;;;6.54;69.99;99594.38;5114529;27;20024;-62
2022/11/27 10:06:32;;;;;;;5.22;2.35;;;;;;;6.27;69.10;99551.25;5097023;27;20028;-60
2022/11/27 10:09:12;;;;;;;5.57;2.30;;;;;;;6.63;70.18;99593.00;5096224;28;20027;-60
2022/11/27 10:11:51;;;;;;;4.85;1.80;;;;;;;6.48;66.59;99576.66;5097290;28;20685;-62
2022/11/27 10:14:31;;;;;;;4.25;1.70;;;;;;;6.72;67.84;99589.84;5091320;28;20573;-60
2022/11/27 10:17:35;;;;;;;4.18;1.55;;;;;;;6.70;67.29;99586.53;5113626;27;20047;-61
2022/11/27 10:20:29;;;;;;;6.57;3.13;;;;;;;6.69;67.31;99585.66;5088932;27;20187;-61
2022/11/27 10:23:03;;;;;;;5.22;2.90;;;;;;;6.72;67.82;99569.97;5105067;27;20039;-61
2022/11/27 10:25:36;;;;;;;6.90;2.85;;;;;;;6.80;66.74;99572.06;5095803;28;20033;-60
2022/11/27 10:28:09;;;;;;;4.18;1.85;;;;;;;6.83;66.38;99569.31;5090506;28;20038;-60
2022/11/27 10:30:39;;;;;;;7.22;2.30;;;;;;;6.91;65.51;99558.47;5100273;27;20042;-61
2022/11/27 10:33:15;;;;;;;4.25;1.50;;;;;;;6.99;65.55;99566.56;5108471;27;20033;-60
2022/11/27 10:35:42;;;;;;;3.80;1.60;;;;;;;7.03;63.92;99564.63;5075691;28;20035;-63
2022/11/27 10:38:16;;;;;;;4.47;1.63;;;;;;;6.84;64.26;99518.41;5079350;28;20375;-61
2022/11/27 10:40:49;;;;;;;4.63;1.80;;;;;;;7.23;62.11;99558.97;5105119;27;20043;-61
2022/11/27 10:43:23;;;;;;;3.72;1.50;;;;;;;7.23;62.81;99556.41;5093838;28;20051;-62
2022/11/27 10:45:51;;;;;;;4.50;1.80;;;;;;;7.29;60.83;99544.81;5079751;28;20107;-61
2022/11/27 10:48:18;;;;;;;4.43;1.70;;;;;;;7.37;62.17;99542.53;5092681;28;20475;-61
2022/11/27 10:50:44;;;;;;;4.05;1.25;;;;;;;7.51;60.65;99545.03;5079332;28;20123;-61
2022/11/27 10:53:27;;;;;;;4.10;1.48;;;;;;;7.54;60.65;99538.00;5079934;28;20100;-61
2022/11/27 10:56:05;;;;;;;4.78;1.50;;;;;;;7.49;62.38;99533.16;5094690;28;20028;-62
2022/11/27 10:58:49;;;;;;;3.95;1.58;;;;;;;7.46;61.12;99544.50;5102026;28;20019;-60
2022/11/27 11:01:17;;;;;;;5.00;1.75;;;;;;;7.49;59.27;99541.72;5117081;27;20027;-62
2022/11/27 11:03:42;;;;;;;3.30;1.20;;;;;;;7.53;57.10;99536.34;5097641;28;20020;-62
2022/11/27 11:06:15;;;;;;;3.70;1.35;;;;;;;7.63;57.99;99530.47;5116974;27;20048;-61
2022/11/27 11:08:41;;;;;;;3.80;1.30;;;;;;;7.67;56.70;99525.91;5076489;28;20308;-62
2022/11/27 11:11:07;;;;;;;4.80;1.30;;;;;;;7.75;55.98;99510.66;5100970;27;20115;-63
2022/11/27 11:13:44;;;;;;;4.18;1.48;;;;;;;7.59;55.27;99476.41;5074634;28;20482;-63
2022/11/27 11:16:10;;;;;;;3.67;1.17;;;;;;;7.85;55.75;99501.34;5074295;28;20042;-62
2022/11/27 11:18:50;;;;;;;3.40;1.40;;;;;;;7.90;55.36;99488.06;5088306;28;20051;-62
2022/11/27 11:21:18;;;;;;;3.85;1.30;;;;;;;8.13;56.03;99490.84;5073136;28;20119;-61
2022/11/27 11:24:18;;;;;;;4.18;1.48;;;;;;;8.09;58.45;99480.69;5098059;28;20114;-61
2022/11/27 11:26:48;;;;;;;4.07;1.20;;;;;;;7.84;59.88;99437.53;5099689;27;20408;-62
2022/11/27 11:29:57;;;;;;;4.03;1.40;;;;;;;8.17;59.83;99474.13;5090074;28;20046;-63
2022/11/27 11:32:25;;;;;;;4.93;1.50;;;;;;;8.26;58.89;99469.13;5072725;28;20059;-61
2022/11/27 11:35:10;;;;;;;4.90;1.45;;;;;;;8.26;58.86;99463.13;5093181;28;20557;-61
2022/11/27 11:37:39;;;;;;;6.88;2.10;;;;;;;8.13;57.36;99413.94;5096471;27;20032;-63
2022/11/27 11:40:18;;;;;;;3.90;1.27;;;;;;;8.49;57.72;99450.31;5094067;27;20027;-62
2022/11/27 11:42:57;;;;;;;4.70;1.50;;;;;;;8.51;58.54;99451.03;5095102;27;20024;-62
2022/11/27 11:45:23;;;;;;;4.10;1.30;;;;;;;8.61;57.32;99445.06;5096574;28;20057;-61
2022/11/27 11:47:50;;;;;;;3.83;1.40;;;;;;;8.61;58.13;99439.88;5099457;28;20059;-62
2022/11/27 11:50:34;;;;;;;4.93;1.40;;;;;;;8.61;56.38;99439.03;5071865;28;20786;-62